Time;durP1;ratioP1;P1;durP2;ratioP2;P2;SDS_P1;SDS_P2;PMS_P1;PMS_P2;Temp;Humidity;BMP_temperature;BMP_pressure;BME280_temperature;BME280_humidity;BME280_pressure;Samples;Min_cycle;Max_cycle;Signal;HPM_P1;HPM_P2
2023/10/21 00:00:41;;;;;;;;;4.00;4.00;;;;;;;;5100424;27;46360;-77
2023/10/21 00:03:07;;;;;;;;;4.67;4.67;;;;;;;;5100284;27;47320;-77
2023/10/21 00:05:32;;;;;;;;;4.67;3.33;;;;;;;;5101173;27;45443;-77
2023/10/21 00:07:57;;;;;;;;;3.00;3.00;;;;;;;;5101735;27;45181;-78
2023/10/21 00:10:22;;;;;;;;;3.00;3.00;;;;;;;;5099973;27;46154;-77
2023/10/21 00:12:48;;;;;;;;;3.33;3.33;;;;;;;;5101545;27;45922;-75
2023/10/21 00:15:13;;;;;;;;;3.00;3.00;;;;;;;;5101479;27;45223;-75
2023/10/21 00:17:38;;;;;;;;;6.00;4.00;;;;;;;;5102031;27;45322;-75
2023/10/21 00:20:06;;;;;;;;;4.00;4.00;;;;;;;;5101397;27;45197;-75
2023/10/21 00:22:31;;;;;;;;;5.25;4.00;;;;;;;;5099864;27;48128;-76
2023/10/21 00:24:57;;;;;;;;;4.00;4.00;;;;;;;;5092819;27;45303;-76
2023/10/21 00:27:22;;;;;;;;;4.00;3.00;;;;;;;;5080850;28;45299;-75
2023/10/21 00:29:48;;;;;;;;;3.00;3.00;;;;;;;;5093544;27;45390;-77
2023/10/21 00:32:13;;;;;;;;;2.50;2.00;;;;;;;;5100299;27;47184;-75
2023/10/21 00:34:38;;;;;;;;;1.25;1.25;;;;;;;;5101960;27;45333;-78
2023/10/21 00:37:04;;;;;;;;;1.50;0.25;;;;;;;;5101437;27;45432;-76
2023/10/21 00:39:30;;;;;;;;;0.00;0.00;;;;;;;;5101113;27;45518;-77
2023/10/21 00:41:55;;;;;;;;;1.00;1.00;;;;;;;;5101750;27;45715;-78
2023/10/21 00:44:20;;;;;;;;;1.00;1.00;;;;;;;;5101784;27;45223;-78
2023/10/21 00:46:46;;;;;;;;;0.25;0.25;;;;;;;;5095609;27;45472;-77
2023/10/21 00:49:12;;;;;;;;;1.00;0.00;;;;;;;;5080540;28;45515;-78
2023/10/21 00:51:39;;;;;;;;;0.00;0.00;;;;;;;;5078473;28;47349;-78
2023/10/21 00:54:04;;;;;;;;;0.00;0.00;;;;;;;;5080423;28;45180;-78
2023/10/21 00:56:29;;;;;;;;;0.00;0.00;;;;;;;;5079350;28;45150;-77
2023/10/21 00:58:54;;;;;;;;;0.00;0.00;;;;;;;;5080561;28;45822;-76
2023/10/21 01:01:19;;;;;;;;;0.00;0.00;;;;;;;;5080402;28;46089;-77
2023/10/21 01:03:45;;;;;;;;;0.00;0.00;;;;;;;;5080249;28;45313;-79
2023/10/21 01:06:10;;;;;;;;;0.00;0.00;;;;;;;;5079811;28;45373;-78
2023/10/21 01:08:42;;;;;;;;;0.00;0.00;;;;;;;;5080215;28;45401;-78
2023/10/21 01:11:08;;;;;;;;;0.00;0.00;;;;;;;;5079787;27;45290;-78
2023/10/21 01:13:34;;;;;;;;;0.00;0.00;;;;;;;;5078643;28;45232;-78
2023/10/21 01:15:59;;;;;;;;;0.00;0.00;;;;;;;;5078836;28;45291;-78
2023/10/21 01:18:25;;;;;;;;;0.00;0.00;;;;;;;;5078733;28;46102;-78
2023/10/21 01:20:53;;;;;;;;;0.00;0.00;;;;;;;;5079781;28;46104;-77
2023/10/21 01:23:19;;;;;;;;;0.00;0.00;;;;;;;;5080075;28;45315;-78
2023/10/21 01:25:44;;;;;;;;;0.00;0.00;;;;;;;;5080347;28;45357;-76
2023/10/21 01:28:10;;;;;;;;;0.00;0.00;;;;;;;;5080054;28;45237;-78
2023/10/21 01:30:35;;;;;;;;;0.00;0.00;;;;;;;;5099055;27;46151;-76
2023/10/21 01:33:00;;;;;;;;;0.00;0.00;;;;;;;;5100563;27;45258;-77
2023/10/21 01:35:25;;;;;;;;;0.00;0.00;;;;;;;;5098933;27;45483;-76
2023/10/21 01:37:51;;;;;;;;;0.00;0.00;;;;;;;;5100366;27;45398;-78
2023/10/21 01:40:16;;;;;;;;;0.00;0.00;;;;;;;;5098918;27;47063;-78
2023/10/21 01:42:41;;;;;;;;;0.00;0.00;;;;;;;;5100438;27;45280;-78
2023/10/21 01:45:07;;;;;;;;;0.00;0.00;;;;;;;;5099167;27;45242;-77
2023/10/21 01:47:33;;;;;;;;;0.00;0.00;;;;;;;;5099956;27;45199;-76
2023/10/21 01:49:58;;;;;;;;;0.00;0.00;;;;;;;;5098446;27;48144;-78
2023/10/21 01:52:26;;;;;;;;;0.00;0.00;;;;;;;;5100155;27;45235;-78
2023/10/21 01:54:53;;;;;;;;;0.00;0.00;;;;;;;;5100349;27;45326;-77
2023/10/21 01:57:18;;;;;;;;;0.00;0.00;;;;;;;;5098497;27;46941;-77
2023/10/21 01:59:43;;;;;;;;;0.00;0.00;;;;;;;;5099970;27;46355;-77
2023/10/21 02:02:09;;;;;;;;;0.00;0.00;;;;;;;;5100128;27;45330;-76
2023/10/21 02:04:34;;;;;;;;;0.00;0.00;;;;;;;;5098533;27;45321;-76
2023/10/21 02:06:59;;;;;;;;;0.00;0.00;;;;;;;;5099689;27;45351;-79
2023/10/21 02:09:24;;;;;;;;;0.00;0.00;;;;;;;;5099865;27;45375;-77
2023/10/21 02:11:51;;;;;;;;;0.00;0.00;;;;;;;;5098468;27;45487;-77
2023/10/21 02:14:17;;;;;;;;;0.00;0.00;;;;;;;;5098680;27;45246;-75
2023/10/21 02:16:45;;;;;;;;;0.00;0.00;;;;;;;;5098334;27;46476;-76
2023/10/21 02:19:10;;;;;;;;;0.00;0.00;;;;;;;;5101530;27;45422;-77
2023/10/21 02:21:35;;;;;;;;;0.00;0.00;;;;;;;;5103189;27;45212;-78
2023/10/21 02:24:00;;;;;;;;;0.00;0.00;;;;;;;;5103421;27;45550;-77
2023/10/21 02:26:25;;;;;;;;;0.00;0.00;;;;;;;;5103288;27;45349;-76
2023/10/21 02:28:51;;;;;;;;;0.00;0.00;;;;;;;;5096921;27;47772;-76
2023/10/21 02:31:16;;;;;;;;;0.00;0.00;;;;;;;;5081295;28;45383;-75
2023/10/21 02:33:41;;;;;;;;;0.00;0.00;;;;;;;;5082917;28;45606;-78
2023/10/21 02:36:06;;;;;;;;;0.00;0.00;;;;;;;;5082364;28;45335;-78
2023/10/21 02:38:31;;;;;;;;;0.00;0.00;;;;;;;;5081189;28;47054;-76
2023/10/21 02:40:56;;;;;;;;;0.00;0.00;;;;;;;;5082628;28;45396;-77
2023/10/21 02:43:22;;;;;;;;;0.00;0.00;;;;;;;;5082742;28;45304;-78
2023/10/21 02:45:48;;;;;;;;;0.00;0.00;;;;;;;;5081052;28;46412;-78
2023/10/21 02:48:13;;;;;;;;;0.00;0.00;;;;;;;;5081037;28;47515;-77
2023/10/21 02:50:39;;;;;;;;;0.00;0.00;;;;;;;;5081731;28;45367;-77
2023/10/21 02:53:04;;;;;;;;;0.00;0.00;;;;;;;;5082425;28;45236;-77
2023/10/21 02:55:29;;;;;;;;;0.75;0.00;;;;;;;;5082012;28;45346;-77
2023/10/21 02:57:54;;;;;;;;;0.00;0.00;;;;;;;;5079878;28;48427;-76
2023/10/21 03:00:21;;;;;;;;;0.00;0.00;;;;;;;;5080651;28;45316;-77
2023/10/21 03:02:48;;;;;;;;;0.00;0.00;;;;;;;;5082444;28;45404;-77
2023/10/21 03:05:14;;;;;;;;;0.00;0.00;;;;;;;;5080341;28;46146;-76
2023/10/21 03:07:39;;;;;;;;;0.75;0.00;;;;;;;;5081977;28;45542;-77
2023/10/21 03:10:04;;;;;;;;;0.00;0.00;;;;;;;;5080662;28;45413;-77
2023/10/21 03:12:30;;;;;;;;;0.00;0.00;;;;;;;;5082251;28;45598;-77
2023/10/21 03:14:55;;;;;;;;;0.00;0.00;;;;;;;;5082147;28;45410;-76
2023/10/21 03:17:20;;;;;;;;;1.00;0.00;;;;;;;;5080539;28;48148;-76
2023/10/21 03:19:46;;;;;;;;;0.00;0.00;;;;;;;;5080334;28;45352;-78
2023/10/21 03:22:11;;;;;;;;;0.00;0.00;;;;;;;;5081854;28;45355;-77
2023/10/21 03:24:36;;;;;;;;;0.00;0.00;;;;;;;;5081962;28;45378;-76
2023/10/21 03:27:02;;;;;;;;;0.00;0.00;;;;;;;;5081931;28;45312;-77
2023/10/21 03:29:27;;;;;;;;;0.00;0.00;;;;;;;;5091461;27;45392;-76
2023/10/21 03:31:52;;;;;;;;;1.00;0.00;;;;;;;;5101178;27;45337;-76
2023/10/21 03:34:17;;;;;;;;;0.00;0.00;;;;;;;;5100720;27;47052;-77
2023/10/21 03:36:42;;;;;;;;;0.00;0.00;;;;;;;;5101947;27;45513;-77
2023/10/21 03:39:08;;;;;;;;;0.00;0.00;;;;;;;;5100692;27;45343;-76
2023/10/21 03:41:33;;;;;;;;;0.00;0.00;;;;;;;;5101003;27;45415;-76
2023/10/21 03:43:58;;;;;;;;;0.00;0.00;;;;;;;;5102232;27;45303;-76
2023/10/21 03:46:23;;;;;;;;;0.25;0.00;;;;;;;;5101600;27;46647;-76
2023/10/21 03:48:48;;;;;;;;;0.00;0.00;;;;;;;;5101930;27;45370;-76
2023/10/21 03:51:17;;;;;;;;;0.00;0.00;;;;;;;;5100565;27;45332;-77
2023/10/21 03:53:43;;;;;;;;;1.00;0.00;;;;;;;;5101832;27;45223;-77
2023/10/21 03:56:08;;;;;;;;;1.00;0.00;;;;;;;;5100484;27;47721;-77
2023/10/21 03:58:34;;;;;;;;;0.50;0.00;;;;;;;;5101810;27;45352;-77
2023/10/21 04:00:59;;;;;;;;;0.00;0.00;;;;;;;;5101969;27;45277;-78
2023/10/21 04:03:25;;;;;;;;;0.75;0.00;;;;;;;;5101673;27;45488;-77
2023/10/21 04:05:50;;;;;;;;;0.00;0.00;;;;;;;;5099774;27;47865;-77
2023/10/21 04:08:16;;;;;;;;;0.00;0.00;;;;;;;;5100360;27;45791;-79
2023/10/21 04:10:41;;;;;;;;;0.00;0.00;;;;;;;;5101828;27;45325;-77
2023/10/21 04:13:06;;;;;;;;;0.00;0.00;;;;;;;;5100160;27;46930;-76
2023/10/21 04:15:32;;;;;;;;;0.00;0.00;;;;;;;;5101527;27;45414;-78
2023/10/21 04:17:58;;;;;;;;;0.00;0.00;;;;;;;;5101539;27;45410;-77
2023/10/21 04:20:23;;;;;;;;;0.50;0.00;;;;;;;;5099809;27;45410;-77
2023/10/21 04:22:48;;;;;;;;;0.00;0.00;;;;;;;;5101459;27;45357;-77
2023/10/21 04:25:13;;;;;;;;;0.00;0.00;;;;;;;;5101327;27;45491;-76
2023/10/21 04:27:38;;;;;;;;;0.00;0.00;;;;;;;;5101445;27;45444;-77
2023/10/21 04:30:04;;;;;;;;;0.00;0.00;;;;;;;;5086001;27;45418;-77
2023/10/21 04:32:29;;;;;;;;;0.00;0.00;;;;;;;;5079093;28;45985;-77
2023/10/21 04:34:55;;;;;;;;;1.25;0.00;;;;;;;;5079027;28;47110;-77
2023/10/21 04:37:21;;;;;;;;;0.00;0.00;;;;;;;;5079009;28;45273;-78
2023/10/21 04:39:46;;;;;;;;;0.00;0.00;;;;;;;;5079529;28;45291;-78
2023/10/21 04:42:11;;;;;;;;;1.00;0.00;;;;;;;;5080098;28;45352;-76
2023/10/21 04:44:37;;;;;;;;;0.25;0.00;;;;;;;;5080645;28;45187;-75
2023/10/21 04:47:02;;;;;;;;;0.00;0.00;;;;;;;;5080548;28;45448;-75
2023/10/21 04:49:27;;;;;;;;;0.00;0.00;;;;;;;;5079299;28;45415;-74
2023/10/21 04:51:52;;;;;;;;;0.50;0.00;;;;;;;;5080338;28;45354;-76
2023/10/21 04:54:18;;;;;;;;;0.00;0.00;;;;;;;;5080440;28;45205;-76
2023/10/21 04:56:43;;;;;;;;;0.00;0.00;;;;;;;;5080629;28;45775;-76
2023/10/21 04:59:09;;;;;;;;;0.00;0.00;;;;;;;;5079083;28;45390;-75
2023/10/21 05:01:34;;;;;;;;;0.00;0.00;;;;;;;;5078489;28;46201;-76
2023/10/21 05:03:59;;;;;;;;;0.50;0.00;;;;;;;;5078405;28;47478;-75
2023/10/21 05:06:24;;;;;;;;;1.00;0.00;;;;;;;;5079291;28;45398;-75
2023/10/21 05:08:49;;;;;;;;;1.25;0.00;;;;;;;;5078376;28;45273;-76
2023/10/21 05:11:14;;;;;;;;;0.00;0.00;;;;;;;;5080229;28;45306;-76
2023/10/21 05:13:40;;;;;;;;;0.75;0.75;;;;;;;;5079910;28;46380;-75
2023/10/21 05:16:05;;;;;;;;;0.25;0.25;;;;;;;;5080134;28;45373;-74
2023/10/21 05:18:30;;;;;;;;;1.00;0.00;;;;;;;;5078898;28;45253;-76
2023/10/21 05:20:56;;;;;;;;;0.00;0.00;;;;;;;;5079823;28;45357;-77
2023/10/21 05:23:21;;;;;;;;;0.00;0.00;;;;;;;;5078496;28;47180;-78
2023/10/21 05:25:46;;;;;;;;;0.00;0.00;;;;;;;;5078564;28;45744;-78
2023/10/21 05:28:11;;;;;;;;;0.00;0.00;;;;;;;;5078874;28;45306;-77
2023/10/21 05:30:37;;;;;;;;;0.50;0.00;;;;;;;;5099333;27;45577;-77
2023/10/21 05:33:02;;;;;;;;;0.00;0.00;;;;;;;;5100381;27;46577;-78
2023/10/21 05:35:28;;;;;;;;;0.00;0.00;;;;;;;;5099630;27;45353;-78
2023/10/21 05:37:53;;;;;;;;;0.00;0.00;;;;;;;;5099044;27;45467;-79
2023/10/21 05:40:18;;;;;;;;;0.00;0.00;;;;;;;;5100304;27;45329;-79
2023/10/21 05:42:43;;;;;;;;;0.00;0.00;;;;;;;;5081116;27;47988;-79
2023/10/21 05:45:08;;;;;;;;;0.00;0.00;;;;;;;;5079398;28;45322;-78
2023/10/21 05:47:35;;;;;;;;;3.50;1.25;;;;;;;;5078778;28;45322;-78
2023/10/21 05:50:00;;;;;;;;;0.00;0.00;;;;;;;;5069657;28;46041;-79
2023/10/21 05:52:25;;;;;;;;;2.00;0.00;;;;;;;;5076372;28;45486;-78
2023/10/21 05:54:50;;;;;;;;;0.00;0.00;;;;;;;;5082514;28;45228;-79
2023/10/21 05:57:15;;;;;;;;;2.00;0.00;;;;;;;;5083120;28;45228;-78
2023/10/21 05:59:40;;;;;;;;;0.00;0.00;;;;;;;;5082723;27;45625;-79
2023/10/21 06:02:07;;;;;;;;;1.00;1.00;;;;;;;;5082720;27;45273;-78
2023/10/21 06:04:32;;;;;;;;;0.00;0.00;;;;;;;;5072242;28;45416;-79
2023/10/21 06:06:57;;;;;;;;;1.00;1.00;;;;;;;;5065060;28;45356;-78
2023/10/21 06:09:23;;;;;;;;;2.00;1.25;;;;;;;;5080595;28;47359;-78
2023/10/21 06:11:49;;;;;;;;;1.75;0.00;;;;;;;;5082875;28;45308;-76
2023/10/21 06:14:14;;;;;;;;;1.25;0.25;;;;;;;;5081510;28;45324;-75
2023/10/21 06:16:39;;;;;;;;;0.00;0.00;;;;;;;;5083085;28;45322;-75
2023/10/21 06:19:04;;;;;;;;;1.50;0.25;;;;;;;;5082765;28;45478;-75
2023/10/21 06:21:30;;;;;;;;;2.75;2.75;;;;;;;;5080996;28;47285;-77
2023/10/21 06:23:55;;;;;;;;;1.00;1.00;;;;;;;;5077648;28;45502;-78
2023/10/21 06:26:20;;;;;;;;;0.00;0.00;;;;;;;;5070005;28;45451;-77
2023/10/21 06:28:46;;;;;;;;;1.50;1.50;;;;;;;;5070350;27;47112;-77
2023/10/21 06:31:11;;;;;;;;;2.00;0.00;;;;;;;;5069828;28;45458;-77
2023/10/21 06:33:37;;;;;;;;;0.00;0.00;;;;;;;;5080463;28;45772;-76
2023/10/21 06:36:03;;;;;;;;;0.00;0.00;;;;;;;;5078456;28;45842;-76
2023/10/21 06:38:28;;;;;;;;;2.25;0.50;;;;;;;;5082394;28;45484;-76
2023/10/21 06:40:53;;;;;;;;;0.00;0.00;;;;;;;;5080716;28;47116;-76
2023/10/21 06:43:19;;;;;;;;;1.50;1.00;;;;;;;;5076007;28;45259;-76
2023/10/21 06:45:45;;;;;;;;;1.50;0.75;;;;;;;;5068325;27;45448;-76
2023/10/21 06:48:10;;;;;;;;;0.00;0.00;;;;;;;;5059633;28;47265;-76
2023/10/21 06:50:35;;;;;;;;;1.25;0.50;;;;;;;;5060657;28;45158;-76
2023/10/21 06:53:00;;;;;;;;;1.25;1.00;;;;;;;;5059578;28;45259;-77
2023/10/21 06:55:26;;;;;;;;;0.00;0.00;;;;;;;;5061735;28;45237;-78
2023/10/21 06:57:52;;;;;;;;;2.75;1.00;;;;;;;;5068774;28;45989;-78
2023/10/21 07:00:17;;;;;;;;;2.25;1.75;;;;;;;;5068992;28;47387;-78
2023/10/21 07:02:42;;;;;;;;;0.00;0.00;;;;;;;;5072105;28;45996;-78
2023/10/21 07:05:09;;;;;;;;;0.25;0.25;;;;;;;;5064907;28;45288;-77
2023/10/21 07:07:35;;;;;;;;;1.00;1.00;;;;;;;;5063178;28;45451;-76
2023/10/21 07:10:01;;;;;;;;;0.00;0.00;;;;;;;;5075113;28;45401;-78
2023/10/21 07:12:26;;;;;;;;;1.00;1.00;;;;;;;;5066367;28;45316;-76
2023/10/21 07:14:52;;;;;;;;;0.00;0.00;;;;;;;;5059297;28;45440;-77
2023/10/21 07:17:17;;;;;;;;;0.00;0.00;;;;;;;;5058507;28;45644;-76
2023/10/21 07:19:42;;;;;;;;;0.25;0.00;;;;;;;;5069782;28;46550;-77
2023/10/21 07:22:07;;;;;;;;;0.25;0.25;;;;;;;;5076631;28;45777;-76
2023/10/21 07:24:33;;;;;;;;;3.75;3.75;;;;;;;;5079156;28;45533;-78
2023/10/21 07:26:58;;;;;;;;;1.00;0.50;;;;;;;;5080715;28;45426;-77
2023/10/21 07:29:23;;;;;;;;;1.00;1.00;;;;;;;;5080110;27;48003;-75
2023/10/21 07:31:49;;;;;;;;;1.25;0.25;;;;;;;;5070365;28;45334;-76
2023/10/21 07:34:14;;;;;;;;;0.00;0.00;;;;;;;;5067424;28;45368;-75
2023/10/21 07:36:45;;;;;;;;;1.50;1.25;;;;;;;;5067236;28;45465;-75
2023/10/21 07:39:21;;;;;;;;;1.00;1.00;;;;;;;;5069509;27;46237;-75
2023/10/21 07:41:46;;;;;;;;;2.00;0.00;;;;;;;;5067894;28;45430;-75
2023/10/21 07:44:11;;;;;;;;;2.25;0.75;;;;;;;;5062652;28;45447;-76
2023/10/21 07:46:37;;;;;;;;;0.25;0.00;;;;;;;;5026044;27;1141681;-76
2023/10/21 07:49:05;;;;;;;;;0.75;0.75;;;;;;;;5067807;28;45579;-75
2023/10/21 07:51:30;;;;;;;;;0.75;0.00;;;;;;;;5080622;28;45266;-75
2023/10/21 07:53:56;;;;;;;;;0.00;0.00;;;;;;;;5079932;28;45445;-75
2023/10/21 07:56:21;;;;;;;;;1.50;1.50;;;;;;;;5080921;27;45379;-75
2023/10/21 07:58:46;;;;;;;;;0.00;0.00;;;;;;;;5079720;28;48350;-77
2023/10/21 08:01:11;;;;;;;;;3.75;1.00;;;;;;;;5080802;28;45298;-76
2023/10/21 08:03:37;;;;;;;;;0.25;0.00;;;;;;;;5081096;28;45337;-77
2023/10/21 08:06:02;;;;;;;;;2.00;0.50;;;;;;;;5078781;27;46024;-76
2023/10/21 08:08:29;;;;;;;;;1.33;1.00;;;;;;;;5080656;28;46608;-77
2023/10/21 08:10:58;;;;;;;;;1.25;1.25;;;;;;;;5080644;28;45218;-78
2023/10/21 08:13:24;;;;;;;;;1.50;1.00;;;;;;;;5079382;28;45484;-76
2023/10/21 08:15:49;;;;;;;;;1.00;0.00;;;;;;;;5080006;28;45278;-76
2023/10/21 08:18:14;;;;;;;;;1.00;1.00;;;;;;;;5079174;28;47081;-76
2023/10/21 08:20:39;;;;;;;;;2.00;0.75;;;;;;;;5080578;28;45276;-76
2023/10/21 08:23:04;;;;;;;;;0.00;0.00;;;;;;;;5080597;28;45299;-75
2023/10/21 08:25:30;;;;;;;;;1.00;1.00;;;;;;;;5079378;28;46461;-76
2023/10/21 08:27:55;;;;;;;;;2.25;1.00;;;;;;;;5080112;28;45364;-78
2023/10/21 08:30:20;;;;;;;;;0.25;0.25;;;;;;;;5088162;27;45168;-77
2023/10/21 08:32:47;;;;;;;;;0.75;0.75;;;;;;;;5080381;28;45546;-76
2023/10/21 08:35:13;;;;;;;;;1.00;0.00;;;;;;;;5080419;28;45284;-75
2023/10/21 08:37:38;;;;;;;;;0.75;0.00;;;;;;;;5079963;28;45278;-78
2023/10/21 08:40:07;;;;;;;;;0.50;0.50;;;;;;;;5078878;28;45303;-78
2023/10/21 08:42:33;;;;;;;;;0.25;0.00;;;;;;;;5080198;28;45567;-75
2023/10/21 08:45:00;;;;;;;;;1.00;1.00;;;;;;;;5080548;28;45306;-77
2023/10/21 08:47:26;;;;;;;;;2.25;2.25;;;;;;;;5068565;28;45333;-76
2023/10/21 08:49:53;;;;;;;;;1.50;0.25;;;;;;;;5062382;28;45517;-76
2023/10/21 08:52:19;;;;;;;;;0.00;0.00;;;;;;;;5078326;28;45385;-77
2023/10/21 08:54:45;;;;;;;;;0.50;0.00;;;;;;;;5076135;28;45486;-76
2023/10/21 08:57:11;;;;;;;;;0.25;0.00;;;;;;;;5058029;28;47264;-77
2023/10/21 08:59:36;;;;;;;;;1.25;1.25;;;;;;;;5057914;28;46114;-76
2023/10/21 09:02:02;;;;;;;;;2.75;0.25;;;;;;;;5067219;28;45392;-78
2023/10/21 09:04:28;;;;;;;;;1.75;1.00;;;;;;;;5067289;28;46746;-77
2023/10/21 09:06:55;;;;;;;;;1.00;1.00;;;;;;;;5061182;28;45374;-76
2023/10/21 09:09:26;;;;;;;;;1.75;0.25;;;;;;;;5078967;28;45338;-77
2023/10/21 09:12:05;;;;;;;;;0.25;0.00;;;;;;;;5078517;28;45361;-76
2023/10/21 09:14:31;;;;;;;;;0.75;0.75;;;;;;;;5079543;28;45315;-76
2023/10/21 09:16:57;;;;;;;;;2.00;0.00;;;;;;;;5078844;28;45333;-76
2023/10/21 09:19:28;;;;;;;;;2.75;1.25;;;;;;;;5077953;28;46019;-78
2023/10/21 09:21:54;;;;;;;;;0.00;0.00;;;;;;;;5074190;28;45352;-78
2023/10/21 09:24:20;;;;;;;;;0.25;0.00;;;;;;;;5079529;28;46140;-80
2023/10/21 09:26:47;;;;;;;;;0.50;0.50;;;;;;;;5080479;28;45878;-79
2023/10/21 09:29:13;;;;;;;;;1.50;0.25;;;;;;;;5081957;27;46458;-82
2023/10/21 09:31:48;;;;;;;;;3.00;1.00;;;;;;;;5082765;27;45323;-81
2023/10/21 09:34:31;;;;;;;;;0.00;0.00;;;;;;;;5080902;27;45491;-81
2023/10/21 09:37:03;;;;;;;;;0.00;0.00;;;;;;;;5079436;27;45379;-79
2023/10/21 09:39:32;;;;;;;;;0.25;0.25;;;;;;;;5079782;27;45757;-83
2023/10/21 09:42:01;;;;;;;;;0.50;0.50;;;;;;;;5076703;27;45312;-81
2023/10/21 09:44:27;;;;;;;;;0.00;0.00;;;;;;;;5065633;28;45352;-82
2023/10/21 09:46:54;;;;;;;;;1.75;0.00;;;;;;;;5059158;28;46591;-84
2023/10/21 09:49:22;;;;;;;;;0.50;0.00;;;;;;;;5058292;28;45427;-79
2023/10/21 09:51:56;;;;;;;;;0.00;0.00;;;;;;;;5057703;28;45373;-78
2023/10/21 09:54:29;;;;;;;;;0.75;0.00;;;;;;;;5072033;28;45354;-78
2023/10/21 09:56:55;;;;;;;;;1.75;0.75;;;;;;;;5078114;28;48097;-79
2023/10/21 09:59:21;;;;;;;;;1.50;0.75;;;;;;;;5079746;28;45359;-78
2023/10/21 10:01:47;;;;;;;;;0.00;0.00;;;;;;;;5067536;28;45340;-81
2023/10/21 10:04:19;;;;;;;;;0.00;0.00;;;;;;;;5070178;28;45561;-78
2023/10/21 10:06:46;;;;;;;;;2.00;0.00;;;;;;;;5068958;28;45505;-80
2023/10/21 10:09:11;;;;;;;;;0.75;0.75;;;;;;;;5075011;28;45797;-82
2023/10/21 10:11:38;;;;;;;;;1.50;1.00;;;;;;;;5077883;28;45338;-80
2023/10/21 10:14:14;;;;;;;;;2.00;2.00;;;;;;;;5074656;28;47029;-81
2023/10/21 10:16:41;;;;;;;;;0.75;0.75;;;;;;;;5058176;28;45321;-80
2023/10/21 10:19:09;;;;;;;;;0.00;0.00;;;;;;;;5058350;28;45350;-80
2023/10/21 10:21:34;;;;;;;;;0.50;0.00;;;;;;;;5058674;28;45413;-80
2023/10/21 10:24:03;;;;;;;;;0.00;0.00;;;;;;;;5074245;28;47082;-79
2023/10/21 10:26:33;;;;;;;;;1.75;1.00;;;;;;;;5074630;28;45552;-78
2023/10/21 10:29:01;;;;;;;;;0.00;0.00;;;;;;;;5068432;27;45651;-77
2023/10/21 10:31:28;;;;;;;;;0.75;0.00;;;;;;;;5097044;27;45445;-80
2023/10/21 10:33:55;;;;;;;;;1.25;0.25;;;;;;;;5074866;27;45712;-79
2023/10/21 10:36:28;;;;;;;;;0.50;0.25;;;;;;;;5064186;28;45553;-78
2023/10/21 10:38:54;;;;;;;;;0.00;0.00;;;;;;;;5075567;28;45296;-79
2023/10/21 10:41:20;;;;;;;;;2.50;2.00;;;;;;;;5060483;28;45385;-78
2023/10/21 10:43:46;;;;;;;;;1.75;0.50;;;;;;;;5061365;28;45537;-78
2023/10/21 10:46:22;;;;;;;;;3.25;1.50;;;;;;;;5061414;28;45443;-79
2023/10/21 10:48:47;;;;;;;;;0.00;0.00;;;;;;;;5067431;28;45540;-78
2023/10/21 10:51:14;;;;;;;;;1.00;1.00;;;;;;;;5080710;28;45242;-76
2023/10/21 10:53:39;;;;;;;;;1.75;1.00;;;;;;;;5080298;28;47116;-78
2023/10/21 10:56:09;;;;;;;;;2.67;1.00;;;;;;;;5080554;27;45444;-77
2023/10/21 10:58:34;;;;;;;;;0.00;0.00;;;;;;;;5080470;28;45405;-78
2023/10/21 11:01:00;;;;;;;;;2.00;1.00;;;;;;;;5081618;28;45361;-77
2023/10/21 11:03:29;;;;;;;;;0.00;0.00;;;;;;;;5070039;28;45425;-78
2023/10/21 11:05:56;;;;;;;;;4.75;1.50;;;;;;;;5069671;28;45459;-77
2023/10/21 11:08:22;;;;;;;;;0.25;0.00;;;;;;;;5069442;28;45501;-76
2023/10/21 11:10:47;;;;;;;;;4.00;0.00;;;;;;;;5070685;28;45556;-76
2023/10/21 11:13:13;;;;;;;;;0.50;0.00;;;;;;;;5085826;27;46047;-79
2023/10/21 11:15:43;;;;;;;;;3.50;0.75;;;;;;;;5070994;28;46179;-77
2023/10/21 11:18:08;;;;;;;;;0.50;0.25;;;;;;;;5071354;28;45410;-77
2023/10/21 11:20:34;;;;;;;;;2.00;2.00;;;;;;;;5070460;28;45504;-76
2023/10/21 11:23:08;;;;;;;;;0.00;0.00;;;;;;;;5067033;28;45760;-80
2023/10/21 11:25:35;;;;;;;;;0.00;0.00;;;;;;;;5069400;28;46829;-78
2023/10/21 11:28:00;;;;;;;;;0.00;0.00;;;;;;;;5080049;28;45441;-77
2023/10/21 11:30:25;;;;;;;;;0.00;0.00;;;;;;;;5070706;27;45955;-79
2023/10/21 11:32:52;;;;;;;;;0.00;0.00;;;;;;;;5068101;28;46223;-76
2023/10/21 11:35:18;;;;;;;;;1.50;0.50;;;;;;;;5071512;28;45712;-81
2023/10/21 11:37:43;;;;;;;;;0.00;0.00;;;;;;;;5074005;28;45267;-80
2023/10/21 11:40:10;;;;;;;;;3.25;2.25;;;;;;;;5070696;28;45221;-81
2023/10/21 11:42:37;;;;;;;;;1.00;0.75;;;;;;;;5068341;28;47542;-81
2023/10/21 11:45:03;;;;;;;;;0.25;0.00;;;;;;;;5067392;28;47667;-80
2023/10/21 11:47:30;;;;;;;;;3.00;1.00;;;;;;;;5066594;28;45381;-84
2023/10/21 11:49:55;;;;;;;;;0.00;0.00;;;;;;;;5071437;28;45507;-82
2023/10/21 11:52:21;;;;;;;;;0.25;0.00;;;;;;;;5077276;28;45322;-79
2023/10/21 12:13:55;;;;;;;;;1.00;0.00;;;;;;;;5039153;28;45442;-78
2023/10/21 12:40:31;;;;;;;;;0.00;0.00;;;;;;;;5040460;28;45451;-77
2023/10/21 12:45:47;;;;;;;;;0.00;0.00;;;;;;;;5080435;28;45437;-77
2023/10/21 12:48:18;;;;;;;;;1.00;0.00;;;;;;;;5081284;28;45360;-77
2023/10/21 12:50:50;;;;;;;;;0.00;0.00;;;;;;;;5080395;27;45749;-77
2023/10/21 12:53:16;;;;;;;;;0.75;0.75;;;;;;;;5081206;28;45441;-77
2023/10/21 12:55:41;;;;;;;;;0.00;0.00;;;;;;;;5079151;28;46984;-78
2023/10/21 12:58:06;;;;;;;;;0.00;0.00;;;;;;;;5082290;28;45338;-78
2023/10/21 13:00:32;;;;;;;;;0.00;0.00;;;;;;;;5083323;28;45252;-77
2023/10/21 13:02:57;;;;;;;;;0.00;0.00;;;;;;;;5082759;28;45282;-79
2023/10/21 13:05:23;;;;;;;;;0.50;0.00;;;;;;;;5081066;28;45320;-78
2023/10/21 13:07:48;;;;;;;;;1.25;1.00;;;;;;;;5081149;28;45377;-78
2023/10/21 13:10:14;;;;;;;;;0.00;0.00;;;;;;;;5079486;28;45330;-82
2023/10/21 13:12:39;;;;;;;;;0.00;0.00;;;;;;;;5079620;28;45469;-78
2023/10/21 13:15:11;;;;;;;;;0.00;0.00;;;;;;;;5077150;28;45413;-79
2023/10/21 13:17:36;;;;;;;;;0.00;0.00;;;;;;;;5080346;27;47705;-79
2023/10/21 13:20:04;;;;;;;;;0.75;0.00;;;;;;;;5091701;27;45380;-76
2023/10/21 13:22:29;;;;;;;;;0.00;0.00;;;;;;;;5098247;27;45309;-77
2023/10/21 13:24:55;;;;;;;;;1.00;0.00;;;;;;;;5073258;27;47432;-79
2023/10/21 13:27:20;;;;;;;;;0.25;0.00;;;;;;;;5077219;28;45505;-79
2023/10/21 13:29:45;;;;;;;;;0.75;0.25;;;;;;;;5078159;27;45834;-77
2023/10/21 13:32:10;;;;;;;;;0.50;0.00;;;;;;;;5062518;28;45322;-78
2023/10/21 13:34:36;;;;;;;;;0.00;0.00;;;;;;;;5067487;27;45770;-78
2023/10/21 13:37:04;;;;;;;;;0.00;0.00;;;;;;;;5081000;28;47839;-78
2023/10/21 13:39:29;;;;;;;;;0.00;0.00;;;;;;;;5073169;27;45398;-78
2023/10/21 13:41:54;;;;;;;;;0.50;0.00;;;;;;;;5073731;28;45591;-78
2023/10/21 13:44:20;;;;;;;;;2.00;1.00;;;;;;;;5066297;27;45893;-79
2023/10/21 13:46:45;;;;;;;;;0.00;0.00;;;;;;;;5061859;28;46373;-80
2023/10/21 13:49:16;;;;;;;;;0.00;0.00;;;;;;;;5073427;27;45392;-79
2023/10/21 13:51:42;;;;;;;;;0.25;0.25;;;;;;;;5080378;28;45334;-81
2023/10/21 13:54:10;;;;;;;;;0.00;0.00;;;;;;;;5082130;27;45831;-82
2023/10/21 13:56:35;;;;;;;;;0.00;0.00;;;;;;;;5079922;28;47941;-76
2023/10/21 13:59:00;;;;;;;;;2.00;1.00;;;;;;;;5060232;28;45343;-79
2023/10/21 14:01:26;;;;;;;;;0.50;0.50;;;;;;;;5068279;28;45509;-77
2023/10/21 14:03:51;;;;;;;;;1.25;1.25;;;;;;;;5076210;28;47030;-78
2023/10/21 14:06:19;;;;;;;;;1.00;1.00;;;;;;;;5076126;27;47209;-76
2023/10/21 14:08:44;;;;;;;;;0.00;0.00;;;;;;;;5075795;28;46069;-76
2023/10/21 14:11:10;;;;;;;;;0.00;0.00;;;;;;;;5062440;28;45337;-76
2023/10/21 14:13:35;;;;;;;;;0.00;0.00;;;;;;;;5078725;28;45494;-76
2023/10/21 14:16:09;;;;;;;;;0.00;0.00;;;;;;;;5080123;28;47860;-75
2023/10/21 14:18:34;;;;;;;;;0.00;0.00;;;;;;;;5082632;28;45279;-74
2023/10/21 14:21:00;;;;;;;;;2.50;0.75;;;;;;;;5082664;28;45274;-75
2023/10/21 14:23:26;;;;;;;;;0.00;0.00;;;;;;;;5082684;28;45177;-75
2023/10/21 14:25:53;;;;;;;;;1.00;0.00;;;;;;;;5080678;28;47008;-77
2023/10/21 14:28:18;;;;;;;;;0.00;0.00;;;;;;;;5083495;27;45277;-74
2023/10/21 14:30:48;;;;;;;;;0.00;0.00;;;;;;;;5084446;27;45465;-76
2023/10/21 14:33:18;;;;;;;;;1.00;1.00;;;;;;;;5082419;28;45498;-75
2023/10/21 14:35:43;;;;;;;;;0.00;0.00;;;;;;;;5082090;28;45344;-76
2023/10/21 14:38:10;;;;;;;;;0.25;0.25;;;;;;;;5081081;28;45335;-75
2023/10/21 14:40:36;;;;;;;;;0.00;0.00;;;;;;;;5081918;27;45508;-75
2023/10/21 14:43:03;;;;;;;;;0.00;0.00;;;;;;;;5080104;28;47440;-78
2023/10/21 14:45:28;;;;;;;;;0.25;0.00;;;;;;;;5080177;28;47378;-78
2023/10/21 14:47:53;;;;;;;;;1.00;0.00;;;;;;;;5082622;27;45310;-76
2023/10/21 14:50:18;;;;;;;;;0.00;0.00;;;;;;;;5081321;28;45414;-78
2023/10/21 14:52:44;;;;;;;;;1.50;1.00;;;;;;;;5082228;28;45349;-76
2023/10/21 14:55:09;;;;;;;;;1.00;1.00;;;;;;;;5085305;28;45760;-77
2023/10/21 14:57:34;;;;;;;;;0.00;0.00;;;;;;;;5084387;27;45223;-77
2023/10/21 15:00:05;;;;;;;;;1.00;1.00;;;;;;;;5084390;28;45203;-77
2023/10/21 15:02:31;;;;;;;;;0.00;0.00;;;;;;;;5083312;28;45367;-76
2023/10/21 15:04:56;;;;;;;;;0.25;0.00;;;;;;;;5081916;28;47225;-78
2023/10/21 15:07:22;;;;;;;;;0.00;0.00;;;;;;;;5081312;28;45772;-79
2023/10/21 15:09:48;;;;;;;;;0.00;0.00;;;;;;;;5084267;28;45325;-80
2023/10/21 15:12:14;;;;;;;;;0.00;0.00;;;;;;;;5083582;28;45567;-78
2023/10/21 15:14:40;;;;;;;;;1.75;0.00;;;;;;;;5088387;28;45274;-82
2023/10/21 15:17:05;;;;;;;;;0.50;0.00;;;;;;;;5083573;28;45549;-77
2023/10/21 15:19:30;;;;;;;;;0.00;0.00;;;;;;;;5081786;28;45362;-77
2023/10/21 15:21:55;;;;;;;;;0.00;0.00;;;;;;;;5082491;28;45576;-78